sensor_id;sensor_type;location;lat;lon;timestamp;P1;durP1;ratioP1;P2;durP2;ratioP2
23228;SDS011;11783;50.350;6.576;2023-06-10T00:01:44;9.43;;;7.60;;
23228;SDS011;11783;50.350;6.576;2023-06-10T00:04:15;12.25;;;7.90;;
23228;SDS011;11783;50.350;6.576;2023-06-10T00:06:42;11.98;;;7.38;;
23228;SDS011;11783;50.350;6.576;2023-06-10T00:09:08;11.70;;;7.85;;
23228;SDS011;11783;50.350;6.576;2023-06-10T00:11:35;11.73;;;7.80;;
23228;SDS011;11783;50.350;6.576;2023-06-10T00:14:01;12.98;;;9.57;;
23228;SDS011;11783;50.350;6.576;2023-06-10T00:16:26;11.35;;;9.50;;
23228;SDS011;11783;50.350;6.576;2023-06-10T00:18:52;12.13;;;9.75;;
23228;SDS011;11783;50.350;6.576;2023-06-10T00:21:17;14.32;;;9.82;;
23228;SDS011;11783;50.350;6.576;2023-06-10T00:23:44;12.48;;;8.82;;
23228;SDS011;11783;50.350;6.576;2023-06-10T00:26:09;13.23;;;9.50;;
23228;SDS011;11783;50.350;6.576;2023-06-10T00:28:35;12.63;;;8.82;;
23228;SDS011;11783;50.350;6.576;2023-06-10T00:31:00;11.02;;;8.18;;
23228;SDS011;11783;50.350;6.576;2023-06-10T00:33:26;11.23;;;8.50;;
23228;SDS011;11783;50.350;6.576;2023-06-10T00:35:51;13.77;;;8.43;;
23228;SDS011;11783;50.350;6.576;2023-06-10T00:38:17;12.82;;;8.80;;
23228;SDS011;11783;50.350;6.576;2023-06-10T00:40:42;11.10;;;8.07;;
23228;SDS011;11783;50.350;6.576;2023-06-10T00:43:08;10.68;;;8.18;;
23228;SDS011;11783;50.350;6.576;2023-06-10T00:45:33;11.75;;;7.70;;
23228;SDS011;11783;50.350;6.576;2023-06-10T00:47:59;13.23;;;9.00;;
23228;SDS011;11783;50.350;6.576;2023-06-10T00:50:26;10.90;;;8.38;;
23228;SDS011;11783;50.350;6.576;2023-06-10T00:52:53;10.93;;;8.45;;
23228;SDS011;11783;50.350;6.576;2023-06-10T00:55:19;10.82;;;8.32;;
23228;SDS011;11783;50.350;6.576;2023-06-10T00:57:45;12.30;;;8.82;;
23228;SDS011;11783;50.350;6.576;2023-06-10T01:00:13;10.98;;;8.45;;
23228;SDS011;11783;50.350;6.576;2023-06-10T01:02:40;10.95;;;8.45;;
23228;SDS011;11783;50.350;6.576;2023-06-10T01:05:06;11.88;;;8.10;;
23228;SDS011;11783;50.350;6.576;2023-06-10T01:13:05;13.15;;;7.72;;
23228;SDS011;11783;50.350;6.576;2023-06-10T01:15:36;10.43;;;8.57;;
23228;SDS011;11783;50.350;6.576;2023-06-10T01:18:03;10.93;;;8.45;;
23228;SDS011;11783;50.350;6.576;2023-06-10T01:20:33;11.13;;;8.93;;
23228;SDS011;11783;50.350;6.576;2023-06-10T01:23:02;16.23;;;8.95;;
23228;SDS011;11783;50.350;6.576;2023-06-10T01:25:28;11.60;;;8.88;;
23228;SDS011;11783;50.350;6.576;2023-06-10T01:30:57;12.90;;;8.50;;
23228;SDS011;11783;50.350;6.576;2023-06-10T01:33:27;11.93;;;8.68;;
23228;SDS011;11783;50.350;6.576;2023-06-10T01:35:56;11.77;;;8.40;;
23228;SDS011;11783;50.350;6.576;2023-06-10T01:38:23;11.88;;;8.40;;
23228;SDS011;11783;50.350;6.576;2023-06-10T01:40:52;10.85;;;8.43;;
23228;SDS011;11783;50.350;6.576;2023-06-10T01:43:20;14.90;;;8.90;;
23228;SDS011;11783;50.350;6.576;2023-06-10T01:45:46;12.20;;;8.25;;
23228;SDS011;11783;50.350;6.576;2023-06-10T01:48:11;15.23;;;8.55;;
23228;SDS011;11783;50.350;6.576;2023-06-10T01:50:37;12.55;;;8.75;;
23228;SDS011;11783;50.350;6.576;2023-06-10T01:53:03;11.60;;;8.93;;
23228;SDS011;11783;50.350;6.576;2023-06-10T01:55:28;11.82;;;9.00;;
23228;SDS011;11783;50.350;6.576;2023-06-10T01:57:54;10.52;;;8.75;;
23228;SDS011;11783;50.350;6.576;2023-06-10T02:00:19;11.35;;;9.00;;
23228;SDS011;11783;50.350;6.576;2023-06-10T02:02:45;11.50;;;8.93;;
23228;SDS011;11783;50.350;6.576;2023-06-10T02:05:11;11.30;;;8.98;;
23228;SDS011;11783;50.350;6.576;2023-06-10T02:07:36;10.98;;;8.80;;
23228;SDS011;11783;50.350;6.576;2023-06-10T02:10:01;12.90;;;8.60;;
23228;SDS011;11783;50.350;6.576;2023-06-10T02:12:27;12.48;;;8.82;;
23228;SDS011;11783;50.350;6.576;2023-06-10T02:14:52;10.10;;;8.55;;
23228;SDS011;11783;50.350;6.576;2023-06-10T02:17:18;11.45;;;9.30;;
23228;SDS011;11783;50.350;6.576;2023-06-10T02:19:44;10.45;;;8.68;;
23228;SDS011;11783;50.350;6.576;2023-06-10T02:22:17;12.70;;;9.57;;
23228;SDS011;11783;50.350;6.576;2023-06-10T02:24:44;12.00;;;8.88;;
23228;SDS011;11783;50.350;6.576;2023-06-10T02:27:09;12.35;;;8.57;;
23228;SDS011;11783;50.350;6.576;2023-06-10T02:29:35;11.30;;;9.00;;
23228;SDS011;11783;50.350;6.576;2023-06-10T02:32:01;11.73;;;8.68;;
23228;SDS011;11783;50.350;6.576;2023-06-10T02:34:27;11.57;;;8.68;;
23228;SDS011;11783;50.350;6.576;2023-06-10T02:36:53;12.00;;;8.70;;
23228;SDS011;11783;50.350;6.576;2023-06-10T02:39:19;13.30;;;9.38;;
23228;SDS011;11783;50.350;6.576;2023-06-10T02:41:44;9.00;;;8.07;;
23228;SDS011;11783;50.350;6.576;2023-06-10T02:44:09;11.27;;;8.82;;
23228;SDS011;11783;50.350;6.576;2023-06-10T02:46:35;12.10;;;9.18;;
23228;SDS011;11783;50.350;6.576;2023-06-10T02:49:00;11.30;;;8.85;;
23228;SDS011;11783;50.350;6.576;2023-06-10T02:51:26;10.48;;;8.88;;
23228;SDS011;11783;50.350;6.576;2023-06-10T02:53:52;12.98;;;8.93;;
23228;SDS011;11783;50.350;6.576;2023-06-10T02:56:18;12.70;;;8.68;;
23228;SDS011;11783;50.350;6.576;2023-06-10T02:58:44;11.07;;;8.88;;
23228;SDS011;11783;50.350;6.576;2023-06-10T03:01:09;12.85;;;8.65;;
23228;SDS011;11783;50.350;6.576;2023-06-10T03:03:35;11.27;;;9.02;;
23228;SDS011;11783;50.350;6.576;2023-06-10T03:06:02;11.35;;;8.63;;
23228;SDS011;11783;50.350;6.576;2023-06-10T03:08:28;11.65;;;9.00;;
23228;SDS011;11783;50.350;6.576;2023-06-10T03:10:53;12.63;;;8.90;;
23228;SDS011;11783;50.350;6.576;2023-06-10T03:13:19;10.90;;;8.88;;
23228;SDS011;11783;50.350;6.576;2023-06-10T03:15:44;9.75;;;8.55;;
23228;SDS011;11783;50.350;6.576;2023-06-10T03:18:11;10.55;;;8.80;;
23228;SDS011;11783;50.350;6.576;2023-06-10T03:20:36;12.98;;;8.98;;
23228;SDS011;11783;50.350;6.576;2023-06-10T03:23:03;10.82;;;8.93;;
23228;SDS011;11783;50.350;6.576;2023-06-10T03:25:31;10.88;;;9.32;;
23228;SDS011;11783;50.350;6.576;2023-06-10T03:27:56;11.40;;;9.10;;
23228;SDS011;11783;50.350;6.576;2023-06-10T03:30:22;11.50;;;8.80;;
23228;SDS011;11783;50.350;6.576;2023-06-10T03:32:47;11.45;;;9.07;;
23228;SDS011;11783;50.350;6.576;2023-06-10T03:35:14;11.90;;;8.95;;
23228;SDS011;11783;50.350;6.576;2023-06-10T03:37:40;11.65;;;9.23;;
23228;SDS011;11783;50.350;6.576;2023-06-10T03:40:05;12.27;;;9.27;;
23228;SDS011;11783;50.350;6.576;2023-06-10T03:42:33;13.73;;;9.50;;
23228;SDS011;11783;50.350;6.576;2023-06-10T03:44:59;11.75;;;8.80;;
23228;SDS011;11783;50.350;6.576;2023-06-10T03:47:24;12.43;;;9.10;;
23228;SDS011;11783;50.350;6.576;2023-06-10T03:49:50;11.13;;;8.98;;
23228;SDS011;11783;50.350;6.576;2023-06-10T03:52:15;12.80;;;9.70;;
23228;SDS011;11783;50.350;6.576;2023-06-10T03:54:41;13.40;;;9.52;;
23228;SDS011;11783;50.350;6.576;2023-06-10T03:57:06;15.60;;;8.93;;
23228;SDS011;11783;50.350;6.576;2023-06-10T03:59:31;13.30;;;8.80;;
23228;SDS011;11783;50.350;6.576;2023-06-10T04:01:57;12.73;;;9.40;;
23228;SDS011;11783;50.350;6.576;2023-06-10T04:04:23;13.10;;;8.27;;
23228;SDS011;11783;50.350;6.576;2023-06-10T04:06:48;12.10;;;8.27;;
23228;SDS011;11783;50.350;6.576;2023-06-10T04:09:14;13.45;;;9.52;;
23228;SDS011;11783;50.350;6.576;2023-06-10T04:11:41;13.63;;;8.65;;
23228;SDS011;11783;50.350;6.576;2023-06-10T04:14:07;10.38;;;8.25;;
23228;SDS011;11783;50.350;6.576;2023-06-10T04:16:33;11.50;;;8.60;;
23228;SDS011;11783;50.350;6.576;2023-06-10T04:18:59;10.63;;;8.32;;
23228;SDS011;11783;50.350;6.576;2023-06-10T04:21:25;11.13;;;8.20;;
23228;SDS011;11783;50.350;6.576;2023-06-10T04:23:51;12.63;;;8.77;;
23228;SDS011;11783;50.350;6.576;2023-06-10T04:26:16;10.95;;;8.30;;
23228;SDS011;11783;50.350;6.576;2023-06-10T04:28:42;12.80;;;9.23;;
23228;SDS011;11783;50.350;6.576;2023-06-10T04:31:08;12.88;;;9.02;;
23228;SDS011;11783;50.350;6.576;2023-06-10T04:33:34;12.90;;;9.13;;
23228;SDS011;11783;50.350;6.576;2023-06-10T04:35:59;13.15;;;9.80;;
23228;SDS011;11783;50.350;6.576;2023-06-10T04:38:24;11.70;;;9.68;;
23228;SDS011;11783;50.350;6.576;2023-06-10T04:40:50;11.18;;;9.07;;
23228;SDS011;11783;50.350;6.576;2023-06-10T04:43:15;13.80;;;9.55;;
23228;SDS011;11783;50.350;6.576;2023-06-10T04:45:41;11.60;;;9.65;;
23228;SDS011;11783;50.350;6.576;2023-06-10T04:48:10;11.40;;;9.38;;
23228;SDS011;11783;50.350;6.576;2023-06-10T04:50:36;11.60;;;9.38;;
23228;SDS011;11783;50.350;6.576;2023-06-10T04:53:02;12.02;;;9.60;;
23228;SDS011;11783;50.350;6.576;2023-06-10T04:55:27;13.85;;;9.63;;
23228;SDS011;11783;50.350;6.576;2023-06-10T04:57:53;10.95;;;8.98;;
23228;SDS011;11783;50.350;6.576;2023-06-10T05:00:18;11.90;;;9.27;;
23228;SDS011;11783;50.350;6.576;2023-06-10T05:02:43;13.93;;;9.38;;
23228;SDS011;11783;50.350;6.576;2023-06-10T05:05:09;12.55;;;9.77;;
23228;SDS011;11783;50.350;6.576;2023-06-10T05:07:35;11.10;;;8.45;;
23228;SDS011;11783;50.350;6.576;2023-06-10T05:10:00;12.65;;;9.80;;
23228;SDS011;11783;50.350;6.576;2023-06-10T05:12:26;12.68;;;9.10;;
23228;SDS011;11783;50.350;6.576;2023-06-10T05:14:51;12.02;;;8.55;;
23228;SDS011;11783;50.350;6.576;2023-06-10T05:17:17;12.32;;;8.55;;
23228;SDS011;11783;50.350;6.576;2023-06-10T05:19:42;13.07;;;9.20;;
23228;SDS011;11783;50.350;6.576;2023-06-10T05:22:09;11.07;;;8.43;;
23228;SDS011;11783;50.350;6.576;2023-06-10T05:24:34;14.52;;;9.68;;
23228;SDS011;11783;50.350;6.576;2023-06-10T05:27:00;12.40;;;9.45;;
23228;SDS011;11783;50.350;6.576;2023-06-10T05:29:25;12.93;;;9.73;;
23228;SDS011;11783;50.350;6.576;2023-06-10T05:31:51;11.50;;;8.82;;
23228;SDS011;11783;50.350;6.576;2023-06-10T05:34:16;11.18;;;9.10;;
23228;SDS011;11783;50.350;6.576;2023-06-10T05:36:42;11.82;;;9.32;;
23228;SDS011;11783;50.350;6.576;2023-06-10T05:39:08;10.55;;;8.68;;
23228;SDS011;11783;50.350;6.576;2023-06-10T05:41:34;10.75;;;8.82;;
23228;SDS011;11783;50.350;6.576;2023-06-10T05:44:00;13.25;;;8.63;;
23228;SDS011;11783;50.350;6.576;2023-06-10T05:46:25;13.13;;;9.60;;
23228;SDS011;11783;50.350;6.576;2023-06-10T05:48:51;13.20;;;9.13;;
23228;SDS011;11783;50.350;6.576;2023-06-10T05:51:16;10.57;;;8.75;;
23228;SDS011;11783;50.350;6.576;2023-06-10T05:53:41;11.82;;;8.75;;
23228;SDS011;11783;50.350;6.576;2023-06-10T05:56:07;10.90;;;8.80;;
23228;SDS011;11783;50.350;6.576;2023-06-10T05:58:33;11.35;;;8.75;;
23228;SDS011;11783;50.350;6.576;2023-06-10T06:00:58;14.95;;;9.88;;
23228;SDS011;11783;50.350;6.576;2023-06-10T06:03:24;10.50;;;9.02;;
23228;SDS011;11783;50.350;6.576;2023-06-10T06:05:49;14.18;;;9.48;;
23228;SDS011;11783;50.350;6.576;2023-06-10T06:08:15;11.05;;;9.30;;
23228;SDS011;11783;50.350;6.576;2023-06-10T06:10:44;13.50;;;8.88;;
23228;SDS011;11783;50.350;6.576;2023-06-10T06:13:10;11.98;;;9.15;;
23228;SDS011;11783;50.350;6.576;2023-06-10T06:15:35;14.07;;;9.65;;
23228;SDS011;11783;50.350;6.576;2023-06-10T06:18:01;12.82;;;8.75;;
23228;SDS011;11783;50.350;6.576;2023-06-10T06:20:26;12.55;;;8.93;;
23228;SDS011;11783;50.350;6.576;2023-06-10T06:22:51;13.57;;;8.50;;
23228;SDS011;11783;50.350;6.576;2023-06-10T06:25:17;11.75;;;8.50;;
23228;SDS011;11783;50.350;6.576;2023-06-10T06:27:42;11.65;;;8.18;;
23228;SDS011;11783;50.350;6.576;2023-06-10T06:30:08;12.43;;;8.13;;
23228;SDS011;11783;50.350;6.576;2023-06-10T06:32:34;11.35;;;8.27;;
23228;SDS011;11783;50.350;6.576;2023-06-10T06:34:59;11.60;;;8.50;;
23228;SDS011;11783;50.350;6.576;2023-06-10T06:37:25;9.95;;;7.88;;
23228;SDS011;11783;50.350;6.576;2023-06-10T06:39:51;10.88;;;8.32;;
23228;SDS011;11783;50.350;6.576;2023-06-10T06:42:17;11.98;;;8.63;;
23228;SDS011;11783;50.350;6.576;2023-06-10T06:44:43;13.07;;;8.80;;
23228;SDS011;11783;50.350;6.576;2023-06-10T06:47:08;13.07;;;8.35;;
23228;SDS011;11783;50.350;6.576;2023-06-10T06:49:34;11.82;;;7.45;;
23228;SDS011;11783;50.350;6.576;2023-06-10T06:52:00;9.50;;;7.55;;
23228;SDS011;11783;50.350;6.576;2023-06-10T06:54:25;11.38;;;7.90;;
23228;SDS011;11783;50.350;6.576;2023-06-10T06:56:50;9.65;;;8.10;;
23228;SDS011;11783;50.350;6.576;2023-06-10T06:59:16;11.80;;;7.80;;
23228;SDS011;11783;50.350;6.576;2023-06-10T07:01:44;11.40;;;7.85;;
23228;SDS011;11783;50.350;6.576;2023-06-10T07:04:10;10.60;;;8.02;;
23228;SDS011;11783;50.350;6.576;2023-06-10T07:06:35;13.02;;;7.78;;
23228;SDS011;11783;50.350;6.576;2023-06-10T07:09:01;12.70;;;8.20;;
23228;SDS011;11783;50.350;6.576;2023-06-10T07:11:27;10.00;;;7.32;;
23228;SDS011;11783;50.350;6.576;2023-06-10T07:13:52;12.10;;;7.43;;
23228;SDS011;11783;50.350;6.576;2023-06-10T07:16:18;11.43;;;7.47;;
23228;SDS011;11783;50.350;6.576;2023-06-10T07:18:45;11.27;;;7.65;;
23228;SDS011;11783;50.350;6.576;2023-06-10T07:21:11;9.45;;;6.97;;
23228;SDS011;11783;50.350;6.576;2023-06-10T07:23:36;8.95;;;7.40;;
23228;SDS011;11783;50.350;6.576;2023-06-10T07:26:02;9.93;;;7.13;;
23228;SDS011;11783;50.350;6.576;2023-06-10T07:28:27;9.68;;;7.38;;
23228;SDS011;11783;50.350;6.576;2023-06-10T07:30:53;10.25;;;7.20;;
23228;SDS011;11783;50.350;6.576;2023-06-10T07:33:18;11.55;;;7.25;;
23228;SDS011;11783;50.350;6.576;2023-06-10T07:35:44;10.13;;;7.20;;
23228;SDS011;11783;50.350;6.576;2023-06-10T07:38:09;11.18;;;7.57;;
23228;SDS011;11783;50.350;6.576;2023-06-10T07:40:35;14.30;;;7.10;;
23228;SDS011;11783;50.350;6.576;2023-06-10T07:43:00;10.45;;;6.97;;
23228;SDS011;11783;50.350;6.576;2023-06-10T07:45:26;9.50;;;6.68;;
23228;SDS011;11783;50.350;6.576;2023-06-10T07:47:51;12.23;;;7.03;;
23228;SDS011;11783;50.350;6.576;2023-06-10T07:50:17;8.90;;;6.65;;
23228;SDS011;11783;50.350;6.576;2023-06-10T07:52:42;11.93;;;6.90;;
23228;SDS011;11783;50.350;6.576;2023-06-10T07:55:08;9.27;;;6.45;;
23228;SDS011;11783;50.350;6.576;2023-06-10T07:57:33;9.85;;;6.28;;
23228;SDS011;11783;50.350;6.576;2023-06-10T08:00:02;8.63;;;5.90;;
23228;SDS011;11783;50.350;6.576;2023-06-10T08:02:29;8.98;;;5.97;;
23228;SDS011;11783;50.350;6.576;2023-06-10T08:04:55;9.50;;;6.30;;
23228;SDS011;11783;50.350;6.576;2023-06-10T08:07:21;12.27;;;6.53;;
23228;SDS011;11783;50.350;6.576;2023-06-10T08:09:47;9.98;;;6.60;;
23228;SDS011;11783;50.350;6.576;2023-06-10T08:12:12;9.35;;;5.82;;
23228;SDS011;11783;50.350;6.576;2023-06-10T08:14:38;8.38;;;6.03;;
23228;SDS011;11783;50.350;6.576;2023-06-10T08:17:04;10.88;;;6.25;;
23228;SDS011;11783;50.350;6.576;2023-06-10T08:19:31;9.05;;;6.20;;
23228;SDS011;11783;50.350;6.576;2023-06-10T08:21:56;7.80;;;5.70;;
23228;SDS011;11783;50.350;6.576;2023-06-10T08:24:22;8.75;;;6.45;;
23228;SDS011;11783;50.350;6.576;2023-06-10T08:26:47;8.50;;;6.00;;
23228;SDS011;11783;50.350;6.576;2023-06-10T08:29:13;7.93;;;6.00;;
23228;SDS011;11783;50.350;6.576;2023-06-10T08:31:42;7.75;;;6.13;;
23228;SDS011;11783;50.350;6.576;2023-06-10T08:34:08;8.60;;;6.00;;
23228;SDS011;11783;50.350;6.576;2023-06-10T08:36:33;12.25;;;6.72;;
23228;SDS011;11783;50.350;6.576;2023-06-10T08:38:59;7.93;;;5.63;;
23228;SDS011;11783;50.350;6.576;2023-06-10T08:41:25;8.23;;;5.53;;
23228;SDS011;11783;50.350;6.576;2023-06-10T08:44:00;10.05;;;6.05;;
23228;SDS011;11783;50.350;6.576;2023-06-10T08:46:33;10.00;;;5.75;;
23228;SDS011;11783;50.350;6.576;2023-06-10T08:49:01;9.82;;;6.22;;
23228;SDS011;11783;50.350;6.576;2023-06-10T08:51:30;10.35;;;6.47;;
23228;SDS011;11783;50.350;6.576;2023-06-10T08:54:01;9.52;;;6.10;;
23228;SDS011;11783;50.350;6.576;2023-06-10T08:56:45;8.65;;;5.65;;
23228;SDS011;11783;50.350;6.576;2023-06-10T08:59:14;7.57;;;5.95;;
23228;SDS011;11783;50.350;6.576;2023-06-10T09:01:41;8.52;;;5.93;;
23228;SDS011;11783;50.350;6.576;2023-06-10T09:04:08;9.98;;;5.90;;
23228;SDS011;11783;50.350;6.576;2023-06-10T09:06:34;8.98;;;6.47;;
23228;SDS011;11783;50.350;6.576;2023-06-10T09:09:01;10.52;;;6.00;;
23228;SDS011;11783;50.350;6.576;2023-06-10T09:11:27;9.00;;;6.32;;
23228;SDS011;11783;50.350;6.576;2023-06-10T09:13:53;8.35;;;5.90;;
23228;SDS011;11783;50.350;6.576;2023-06-10T09:16:19;8.75;;;6.13;;
23228;SDS011;11783;50.350;6.576;2023-06-10T09:18:44;8.77;;;5.68;;
23228;SDS011;11783;50.350;6.576;2023-06-10T09:21:10;9.50;;;6.03;;
23228;SDS011;11783;50.350;6.576;2023-06-10T09:23:36;8.90;;;6.00;;
23228;SDS011;11783;50.350;6.576;2023-06-10T09:26:02;10.25;;;6.00;;
23228;SDS011;11783;50.350;6.576;2023-06-10T09:28:32;8.75;;;5.65;;
23228;SDS011;11783;50.350;6.576;2023-06-10T09:31:02;6.35;;;5.20;;
23228;SDS011;11783;50.350;6.576;2023-06-10T09:33:29;8.88;;;5.05;;
23228;SDS011;11783;50.350;6.576;2023-06-10T09:35:55;7.97;;;5.18;;
23228;SDS011;11783;50.350;6.576;2023-06-10T09:38:22;7.95;;;5.20;;
23228;SDS011;11783;50.350;6.576;2023-06-10T09:40:48;7.63;;;5.50;;
23228;SDS011;11783;50.350;6.576;2023-06-10T09:43:17;6.50;;;5.00;;
23228;SDS011;11783;50.350;6.576;2023-06-10T09:45:43;7.60;;;5.35;;
23228;SDS011;11783;50.350;6.576;2023-06-10T09:48:09;7.35;;;5.28;;
23228;SDS011;11783;50.350;6.576;2023-06-10T09:50:34;6.80;;;5.15;;
23228;SDS011;11783;50.350;6.576;2023-06-10T09:53:07;8.20;;;5.13;;
23228;SDS011;11783;50.350;6.576;2023-06-10T09:55:32;7.43;;;5.30;;
23228;SDS011;11783;50.350;6.576;2023-06-10T09:57:59;9.35;;;5.60;;
23228;SDS011;11783;50.350;6.576;2023-06-10T10:00:25;7.22;;;5.25;;
23228;SDS011;11783;50.350;6.576;2023-06-10T10:02:51;8.35;;;5.85;;
23228;SDS011;11783;50.350;6.576;2023-06-10T10:05:19;11.35;;;5.15;;
23228;SDS011;11783;50.350;6.576;2023-06-10T10:07:49;9.52;;;5.30;;
23228;SDS011;11783;50.350;6.576;2023-06-10T10:10:18;8.25;;;5.32;;
23228;SDS011;11783;50.350;6.576;2023-06-10T10:12:50;7.05;;;5.30;;
23228;SDS011;11783;50.350;6.576;2023-06-10T10:15:21;7.53;;;5.35;;
23228;SDS011;11783;50.350;6.576;2023-06-10T10:20:34;8.20;;;5.25;;
23228;SDS011;11783;50.350;6.576;2023-06-10T10:25:37;8.45;;;5.00;;
23228;SDS011;11783;50.350;6.576;2023-06-10T10:28:11;6.70;;;5.03;;
23228;SDS011;11783;50.350;6.576;2023-06-10T10:30:39;8.10;;;5.20;;
23228;SDS011;11783;50.350;6.576;2023-06-10T10:33:12;9.73;;;5.25;;
23228;SDS011;11783;50.350;6.576;2023-06-10T10:35:43;6.53;;;4.95;;
23228;SDS011;11783;50.350;6.576;2023-06-10T10:38:10;7.22;;;5.00;;
23228;SDS011;11783;50.350;6.576;2023-06-10T10:40:36;9.70;;;5.10;;
23228;SDS011;11783;50.350;6.576;2023-06-10T10:43:04;7.38;;;5.07;;
23228;SDS011;11783;50.350;6.576;2023-06-10T10:45:30;7.10;;;4.43;;
23228;SDS011;11783;50.350;6.576;2023-06-10T10:47:55;6.72;;;4.55;;
23228;SDS011;11783;50.350;6.576;2023-06-10T10:50:22;6.75;;;4.68;;
23228;SDS011;11783;50.350;6.576;2023-06-10T10:53:09;7.80;;;4.95;;
23228;SDS011;11783;50.350;6.576;2023-06-10T10:55:33;6.97;;;4.75;;
23228;SDS011;11783;50.350;6.576;2023-06-10T10:57:59;8.68;;;4.65;;
23228;SDS011;11783;50.350;6.576;2023-06-10T11:02:59;7.68;;;4.60;;
23228;SDS011;11783;50.350;6.576;2023-06-10T11:05:43;9.18;;;4.90;;
23228;SDS011;11783;50.350;6.576;2023-06-10T11:10:53;6.75;;;4.60;;
23228;SDS011;11783;50.350;6.576;2023-06-10T11:13:20;8.30;;;4.40;;
23228;SDS011;11783;50.350;6.576;2023-06-10T11:15:47;6.47;;;4.78;;
23228;SDS011;11783;50.350;6.576;2023-06-10T11:18:22;6.10;;;4.68;;
23228;SDS011;11783;50.350;6.576;2023-06-10T11:31:19;6.13;;;4.75;;
23228;SDS011;11783;50.350;6.576;2023-06-10T11:33:49;6.53;;;4.50;;
23228;SDS011;11783;50.350;6.576;2023-06-10T11:36:18;7.68;;;4.75;;
23228;SDS011;11783;50.350;6.576;2023-06-10T11:38:43;8.05;;;4.60;;
23228;SDS011;11783;50.350;6.576;2023-06-10T11:41:10;7.63;;;4.90;;
23228;SDS011;11783;50.350;6.576;2023-06-10T11:43:40;8.20;;;4.30;;
23228;SDS011;11783;50.350;6.576;2023-06-10T11:46:08;6.97;;;4.95;;
23228;SDS011;11783;50.350;6.576;2023-06-10T11:48:34;7.18;;;4.57;;
23228;SDS011;11783;50.350;6.576;2023-06-10T11:50:59;6.40;;;4.47;;
23228;SDS011;11783;50.350;6.576;2023-06-10T11:53:25;8.57;;;4.70;;
23228;SDS011;11783;50.350;6.576;2023-06-10T11:55:50;7.85;;;4.20;;
23228;SDS011;11783;50.350;6.576;2023-06-10T11:58:17;5.85;;;4.45;;
23228;SDS011;11783;50.350;6.576;2023-06-10T12:00:44;7.80;;;4.47;;
23228;SDS011;11783;50.350;6.576;2023-06-10T12:03:10;5.85;;;3.97;;
23228;SDS011;11783;50.350;6.576;2023-06-10T12:05:36;8.27;;;4.63;;
23228;SDS011;11783;50.350;6.576;2023-06-10T12:08:08;6.90;;;4.10;;
23228;SDS011;11783;50.350;6.576;2023-06-10T12:10:39;7.50;;;4.40;;
23228;SDS011;11783;50.350;6.576;2023-06-10T12:13:08;7.00;;;4.70;;
23228;SDS011;11783;50.350;6.576;2023-06-10T12:15:34;7.95;;;4.05;;
23228;SDS011;11783;50.350;6.576;2023-06-10T12:18:00;7.55;;;4.20;;
23228;SDS011;11783;50.350;6.576;2023-06-10T12:20:27;5.47;;;3.70;;
23228;SDS011;11783;50.350;6.576;2023-06-10T12:22:59;7.07;;;4.47;;
23228;SDS011;11783;50.350;6.576;2023-06-10T12:25:25;7.43;;;4.45;;
23228;SDS011;11783;50.350;6.576;2023-06-10T12:27:53;7.43;;;4.82;;
23228;SDS011;11783;50.350;6.576;2023-06-10T12:30:19;7.35;;;4.60;;
23228;SDS011;11783;50.350;6.576;2023-06-10T12:32:46;6.68;;;4.82;;
23228;SDS011;11783;50.350;6.576;2023-06-10T12:35:19;5.40;;;4.13;;
23228;SDS011;11783;50.350;6.576;2023-06-10T12:37:59;7.75;;;4.13;;
23228;SDS011;11783;50.350;6.576;2023-06-10T12:40:33;7.50;;;4.33;;
23228;SDS011;11783;50.350;6.576;2023-06-10T12:43:01;8.18;;;4.15;;
23228;SDS011;11783;50.350;6.576;2023-06-10T12:50:32;6.75;;;3.67;;
23228;SDS011;11783;50.350;6.576;2023-06-10T12:52:58;5.90;;;3.40;;
23228;SDS011;11783;50.350;6.576;2023-06-10T12:55:25;6.55;;;3.63;;
23228;SDS011;11783;50.350;6.576;2023-06-10T12:57:50;8.80;;;3.90;;
23228;SDS011;11783;50.350;6.576;2023-06-10T13:00:16;7.10;;;3.45;;
23228;SDS011;11783;50.350;6.576;2023-06-10T13:02:43;5.80;;;3.63;;
23228;SDS011;11783;50.350;6.576;2023-06-10T13:05:08;6.53;;;3.58;;
23228;SDS011;11783;50.350;6.576;2023-06-10T13:07:33;6.80;;;4.32;;
23228;SDS011;11783;50.350;6.576;2023-06-10T13:09:59;6.00;;;3.83;;
23228;SDS011;11783;50.350;6.576;2023-06-10T13:12:26;7.43;;;3.80;;
23228;SDS011;11783;50.350;6.576;2023-06-10T13:14:54;5.18;;;3.75;;
23228;SDS011;11783;50.350;6.576;2023-06-10T13:17:20;7.32;;;4.40;;
23228;SDS011;11783;50.350;6.576;2023-06-10T13:19:45;7.07;;;4.10;;
23228;SDS011;11783;50.350;6.576;2023-06-10T13:22:11;6.97;;;3.70;;
23228;SDS011;11783;50.350;6.576;2023-06-10T13:24:38;8.65;;;3.75;;
23228;SDS011;11783;50.350;6.576;2023-06-10T13:27:05;6.70;;;3.90;;
23228;SDS011;11783;50.350;6.576;2023-06-10T13:29:31;5.38;;;3.78;;
23228;SDS011;11783;50.350;6.576;2023-06-10T13:31:57;5.88;;;4.15;;
23228;SDS011;11783;50.350;6.576;2023-06-10T13:34:22;6.00;;;3.90;;
23228;SDS011;11783;50.350;6.576;2023-06-10T13:36:48;7.68;;;3.75;;
23228;SDS011;11783;50.350;6.576;2023-06-10T13:39:13;7.07;;;3.90;;
23228;SDS011;11783;50.350;6.576;2023-06-10T13:41:40;7.40;;;4.80;;
23228;SDS011;11783;50.350;6.576;2023-06-10T13:44:06;7.05;;;4.13;;
23228;SDS011;11783;50.350;6.576;2023-06-10T13:46:32;7.60;;;3.95;;
23228;SDS011;11783;50.350;6.576;2023-06-10T13:48:57;8.32;;;4.30;;
23228;SDS011;11783;50.350;6.576;2023-06-10T13:51:22;8.20;;;3.97;;
23228;SDS011;11783;50.350;6.576;2023-06-10T13:53:48;7.13;;;3.85;;
23228;SDS011;11783;50.350;6.576;2023-06-10T13:56:14;7.03;;;4.63;;
23228;SDS011;11783;50.350;6.576;2023-06-10T13:58:39;6.65;;;4.43;;
23228;SDS011;11783;50.350;6.576;2023-06-10T14:01:06;7.03;;;3.95;;
23228;SDS011;11783;50.350;6.576;2023-06-10T14:03:31;7.85;;;4.00;;
23228;SDS011;11783;50.350;6.576;2023-06-10T14:05:57;6.63;;;3.67;;
23228;SDS011;11783;50.350;6.576;2023-06-10T14:08:23;5.70;;;3.88;;
23228;SDS011;11783;50.350;6.576;2023-06-10T14:10:48;6.38;;;4.20;;
23228;SDS011;11783;50.350;6.576;2023-06-10T14:13:15;7.35;;;4.07;;
23228;SDS011;11783;50.350;6.576;2023-06-10T14:15:41;6.68;;;4.05;;
23228;SDS011;11783;50.350;6.576;2023-06-10T14:18:06;7.63;;;4.13;;
23228;SDS011;11783;50.350;6.576;2023-06-10T14:20:31;7.53;;;4.03;;
23228;SDS011;11783;50.350;6.576;2023-06-10T14:22:57;6.40;;;3.50;;
23228;SDS011;11783;50.350;6.576;2023-06-10T14:25:23;6.15;;;3.63;;
23228;SDS011;11783;50.350;6.576;2023-06-10T14:27:49;6.07;;;3.58;;
23228;SDS011;11783;50.350;6.576;2023-06-10T14:30:15;6.95;;;3.80;;
23228;SDS011;11783;50.350;6.576;2023-06-10T14:32:40;6.88;;;3.83;;
23228;SDS011;11783;50.350;6.576;2023-06-10T14:35:06;5.15;;;3.60;;
23228;SDS011;11783;50.350;6.576;2023-06-10T14:37:32;5.57;;;3.88;;
23228;SDS011;11783;50.350;6.576;2023-06-10T14:39:57;6.93;;;4.05;;
23228;SDS011;11783;50.350;6.576;2023-06-10T14:42:22;5.75;;;3.95;;
23228;SDS011;11783;50.350;6.576;2023-06-10T14:44:48;5.95;;;3.85;;
23228;SDS011;11783;50.350;6.576;2023-06-10T14:47:14;7.63;;;3.63;;
23228;SDS011;11783;50.350;6.576;2023-06-10T14:49:40;5.43;;;3.60;;
23228;SDS011;11783;50.350;6.576;2023-06-10T14:52:07;5.88;;;3.72;;
23228;SDS011;11783;50.350;6.576;2023-06-10T14:54:33;6.13;;;3.85;;
23228;SDS011;11783;50.350;6.576;2023-06-10T14:56:59;6.57;;;3.80;;
23228;SDS011;11783;50.350;6.576;2023-06-10T14:59:24;6.32;;;3.28;;
23228;SDS011;11783;50.350;6.576;2023-06-10T15:01:50;5.80;;;3.40;;
23228;SDS011;11783;50.350;6.576;2023-06-10T15:04:15;7.78;;;4.00;;
23228;SDS011;11783;50.350;6.576;2023-06-10T15:06:40;6.60;;;3.85;;
23228;SDS011;11783;50.350;6.576;2023-06-10T15:09:07;6.15;;;4.10;;
23228;SDS011;11783;50.350;6.576;2023-06-10T15:11:33;7.18;;;3.90;;